createdAt,value
2023-04-18T00:00:15.508Z,99.90
2023-04-18T00:03:04.687Z,99.90
2023-04-18T00:05:32.254Z,99.90
2023-04-18T00:07:59.933Z,99.90
2023-04-18T00:10:28.721Z,99.90
2023-04-18T00:12:57.227Z,99.90
2023-04-18T00:15:24.246Z,99.90
2023-04-18T00:17:52.428Z,99.90
2023-04-18T00:20:19.546Z,99.90
2023-04-18T00:22:47.788Z,99.90
2023-04-18T00:25:14.932Z,99.90
2023-04-18T00:27:42.204Z,99.90
2023-04-18T00:30:09.722Z,99.90
2023-04-18T00:32:38.939Z,99.90
2023-04-18T00:35:06.547Z,99.90
2023-04-18T00:37:34.291Z,99.90
2023-04-18T00:40:01.423Z,99.90
2023-04-18T00:42:29.449Z,99.90
2023-04-18T00:44:56.701Z,99.90
2023-04-18T00:47:24.092Z,99.90
2023-04-18T00:49:51.858Z,99.90
2023-04-18T00:52:19.558Z,99.90
2023-04-18T00:54:47.442Z,99.90
2023-04-18T00:57:15.275Z,99.90
2023-04-18T00:59:42.876Z,99.90
2023-04-18T01:02:10.502Z,99.90
2023-04-18T01:04:42.737Z,99.90
2023-04-18T01:07:10.368Z,99.90
2023-04-18T01:09:37.488Z,99.90
2023-04-18T01:12:05.038Z,99.90
2023-04-18T01:14:32.165Z,99.90
2023-04-18T01:16:59.451Z,99.90
2023-04-18T01:19:26.906Z,99.90
2023-04-18T01:21:54.370Z,99.90
2023-04-18T01:24:24.496Z,99.90
2023-04-18T01:26:52.017Z,99.90
2023-04-18T01:29:19.042Z,99.90
2023-04-18T01:31:46.562Z,99.90
2023-04-18T01:34:17.900Z,99.90
2023-04-18T01:36:46.061Z,99.90
2023-04-18T01:39:13.954Z,99.90
2023-04-18T01:41:42.031Z,99.90
2023-04-18T01:44:12.485Z,99.90
2023-04-18T01:46:40.893Z,98.30
2023-04-18T01:49:11.183Z,97.80
2023-04-18T01:51:42.384Z,96.90
2023-04-18T01:54:10.006Z,96.10
2023-04-18T01:56:37.047Z,95.20
2023-04-18T01:59:06.897Z,95.90
2023-04-18T02:01:36.212Z,94.50
2023-04-18T02:04:03.486Z,94.60
2023-04-18T02:06:30.880Z,95.20
2023-04-18T02:09:00.405Z,95.30
2023-04-18T02:11:27.584Z,94.70
2023-04-18T02:13:54.943Z,93.30
2023-04-18T02:16:22.054Z,92.50
2023-04-18T02:18:52.357Z,92.40
2023-04-18T02:21:20.544Z,94.20
2023-04-18T02:23:49.693Z,92.40
2023-04-18T02:26:16.872Z,92.40
2023-04-18T02:28:44.223Z,93.30
2023-04-18T02:31:14.844Z,95.80
2023-04-18T02:33:43.333Z,94.70
2023-04-18T02:36:11.881Z,93.70
2023-04-18T02:38:39.285Z,93.00
2023-04-18T02:41:06.466Z,94.50
2023-04-18T02:43:34.258Z,94.30
2023-04-18T02:46:02.860Z,94.40
2023-04-18T02:48:30.506Z,94.90
2023-04-18T02:51:05.705Z,97.80
2023-04-18T02:53:35.768Z,97.00
2023-04-18T02:56:03.054Z,96.70
2023-04-18T02:58:50.423Z,96.80
2023-04-18T03:01:37.708Z,95.10
2023-04-18T03:04:09.487Z,95.40
2023-04-18T03:06:41.799Z,95.00
2023-04-18T03:09:09.508Z,93.30
2023-04-18T03:11:41.256Z,95.20
2023-04-18T03:14:09.075Z,95.40
2023-04-18T03:16:55.589Z,96.20
2023-04-18T03:19:27.437Z,95.10
2023-04-18T03:21:56.658Z,95.50
2023-04-18T03:24:23.997Z,94.10
2023-04-18T03:26:53.586Z,92.80
2023-04-18T03:29:24.770Z,91.90
2023-04-18T03:31:51.888Z,92.30
2023-04-18T03:34:19.288Z,91.80
2023-04-18T03:36:47.952Z,92.70
2023-04-18T03:39:15.840Z,93.50
2023-04-18T03:41:43.117Z,93.70
2023-04-18T03:44:11.395Z,92.90
2023-04-18T03:46:41.386Z,92.40
2023-04-18T03:49:10.359Z,92.80
2023-04-18T03:51:49.234Z,90.80
2023-04-18T03:54:17.437Z,91.40
2023-04-18T03:56:45.091Z,90.70
2023-04-18T03:59:13.887Z,87.80
2023-04-18T04:01:44.405Z,80.50
2023-04-18T04:04:15.666Z,74.20
2023-04-18T04:06:43.399Z,70.10
2023-04-18T04:09:11.065Z,68.00
2023-04-18T04:11:39.669Z,65.10
2023-04-18T04:14:09.610Z,64.70
2023-04-18T04:16:41.756Z,61.60
2023-04-18T04:19:11.087Z,58.60
2023-04-18T04:21:44.156Z,57.80
2023-04-18T04:24:15.458Z,54.40
2023-04-18T04:26:46.686Z,49.10
2023-04-18T04:29:19.021Z,45.00
2023-04-18T04:31:48.016Z,44.80
2023-04-18T04:34:24.159Z,44.80
2023-04-18T04:36:51.619Z,44.00
2023-04-18T04:39:19.145Z,38.80
2023-04-18T04:42:07.707Z,39.40
2023-04-18T04:44:44.341Z,36.50
2023-04-18T04:47:11.605Z,31.40
2023-04-18T04:49:40.176Z,34.00
2023-04-18T04:52:07.190Z,31.50
2023-04-18T04:54:34.915Z,29.20
2023-04-18T04:57:04.691Z,23.70
2023-04-18T04:59:32.282Z,8.30
2023-04-18T05:02:00.644Z,5.60
2023-04-18T05:04:28.152Z,1.00
2023-04-18T05:06:55.657Z,1.00
2023-04-18T05:09:22.928Z,1.00
2023-04-18T05:11:49.927Z,1.00
2023-04-18T05:14:17.774Z,1.00
2023-04-18T05:16:44.877Z,1.00
2023-04-18T05:19:12.553Z,1.30
2023-04-18T05:21:39.604Z,1.00
2023-04-18T05:24:06.952Z,1.00
2023-04-18T05:26:34.083Z,1.00
2023-04-18T05:29:01.472Z,99.90
2023-04-18T05:31:28.793Z,99.90
2023-04-18T05:33:56.195Z,99.90
2023-04-18T05:36:23.275Z,99.90
2023-04-18T05:38:53.368Z,99.90
2023-04-18T05:41:20.446Z,99.90
2023-04-18T05:43:58.120Z,99.90
2023-04-18T05:46:32.285Z,95.30
2023-04-18T05:48:59.672Z,96.90
2023-04-18T05:51:28.634Z,99.90
2023-04-18T05:53:56.035Z,62.10
2023-04-18T05:56:23.448Z,99.80
2023-04-18T05:58:51.389Z,99.90
2023-04-18T06:01:21.583Z,1.00
2023-04-18T06:03:49.178Z,9.60
2023-04-18T06:06:17.500Z,99.90
2023-04-18T06:08:44.883Z,1.00
2023-04-18T06:11:11.903Z,99.90
2023-04-18T06:13:39.450Z,1.00
2023-04-18T06:16:07.054Z,99.90
2023-04-18T06:18:34.592Z,99.90
2023-04-18T06:21:02.375Z,99.90
2023-04-18T06:23:29.853Z,99.90
2023-04-18T06:25:57.608Z,99.90
2023-04-18T06:28:27.788Z,99.90
2023-04-18T06:30:54.824Z,99.90
2023-04-18T06:33:22.239Z,1.00
2023-04-18T06:35:49.262Z,99.90
2023-04-18T06:38:16.726Z,99.90
2023-04-18T06:40:43.717Z,1.00
2023-04-18T06:43:13.612Z,99.90
2023-04-18T06:45:40.766Z,99.90
2023-04-18T06:48:09.144Z,99.90
2023-04-18T06:50:36.288Z,99.90
2023-04-18T06:53:03.623Z,99.90
2023-04-18T07:08:18.184Z,99.90
2023-04-18T07:10:45.493Z,97.30
2023-04-18T07:13:13.079Z,89.50
2023-04-18T07:15:40.892Z,17.20
2023-04-18T07:18:07.911Z,21.30
2023-04-18T07:20:35.353Z,1.00
2023-04-18T07:23:02.340Z,1.00
2023-04-18T07:25:29.575Z,1.00
2023-04-18T07:27:56.633Z,1.00
2023-04-18T07:30:24.054Z,1.00
2023-04-18T07:32:51.285Z,1.00
2023-04-18T07:35:19.138Z,1.00
2023-04-18T07:37:46.203Z,1.00
2023-04-18T07:40:13.845Z,1.00
2023-04-18T07:42:41.347Z,1.00
2023-04-18T07:45:09.170Z,99.90
2023-04-18T07:47:36.287Z,99.90
2023-04-18T07:50:04.013Z,99.90
2023-04-18T07:52:31.048Z,99.90
2023-04-18T07:54:58.361Z,99.90
2023-04-18T07:57:25.497Z,99.90
2023-04-18T07:59:53.922Z,99.90
2023-04-18T08:02:21.754Z,99.90
2023-04-18T08:04:50.061Z,99.90
2023-04-18T08:07:17.361Z,99.90
2023-04-18T08:09:44.656Z,99.90
2023-04-18T08:12:11.731Z,99.90
2023-04-18T08:14:41.745Z,99.90
2023-04-18T08:17:08.860Z,99.90
2023-04-18T08:19:36.389Z,99.90
2023-04-18T08:22:10.630Z,99.90
2023-04-18T08:24:39.042Z,99.90
2023-04-18T08:27:06.346Z,99.90
2023-04-18T08:29:36.844Z,99.90
2023-04-18T08:32:07.488Z,99.90
2023-04-18T08:34:38.135Z,99.90
2023-04-18T08:37:05.744Z,99.90
2023-04-18T08:39:33.082Z,99.90
2023-04-18T08:42:00.709Z,99.90
2023-04-18T08:44:29.177Z,99.90
2023-04-18T08:47:02.084Z,99.90
2023-04-18T08:49:31.387Z,99.90
2023-04-18T08:52:01.444Z,99.90
2023-04-18T08:54:30.596Z,99.90
2023-04-18T08:57:08.779Z,99.90
2023-04-18T08:59:36.385Z,99.90
2023-04-18T09:02:05.538Z,99.90
2023-04-18T09:04:48.985Z,99.90
2023-04-18T09:07:17.404Z,99.90
2023-04-18T09:09:52.418Z,99.90
2023-04-18T09:12:25.308Z,99.90
2023-04-18T09:14:57.952Z,99.90
2023-04-18T09:17:53.519Z,99.90
2023-04-18T09:20:35.598Z,99.90
2023-04-18T09:23:11.355Z,99.90
2023-04-18T09:25:44.473Z,99.90
2023-04-18T09:28:29.459Z,99.90
2023-04-18T09:30:59.204Z,99.90
2023-04-18T09:33:28.384Z,99.90
2023-04-18T09:36:23.623Z,99.90
2023-04-18T09:38:54.615Z,99.90
2023-04-18T09:41:23.664Z,99.90
2023-04-18T09:44:07.736Z,99.90
2023-04-18T09:46:35.958Z,99.90
2023-04-18T09:49:03.039Z,99.90
2023-04-18T09:51:34.728Z,99.90
2023-04-18T09:54:05.534Z,99.90
2023-04-18T09:56:34.416Z,99.90
2023-04-18T09:59:12.143Z,99.90
2023-04-18T10:01:41.121Z,99.90
2023-04-18T10:04:09.680Z,99.90
2023-04-18T10:06:39.785Z,99.90
2023-04-18T10:09:13.815Z,99.90
2023-04-18T10:11:41.706Z,99.90
2023-04-18T10:14:14.682Z,99.90
2023-04-18T10:16:45.464Z,99.90
2023-04-18T10:19:27.128Z,99.90
2023-04-18T10:21:56.531Z,99.90
2023-04-18T10:24:45.345Z,99.90
2023-04-18T10:27:18.460Z,99.90
2023-04-18T10:29:54.800Z,99.90
2023-04-18T10:32:25.042Z,99.90
2023-04-18T10:34:57.124Z,99.90
2023-04-18T10:37:32.605Z,99.90
2023-04-18T10:40:07.267Z,99.90
2023-04-18T10:42:47.489Z,99.90
2023-04-18T10:45:48.493Z,99.90
2023-04-18T10:48:30.546Z,99.90
2023-04-18T10:51:20.909Z,99.90
2023-04-18T10:53:57.732Z,99.90
2023-04-18T10:56:26.141Z,99.90
2023-04-18T10:58:53.940Z,99.90
2023-04-18T11:01:32.082Z,99.90
2023-04-18T11:04:00.571Z,99.90
2023-04-18T11:06:28.481Z,99.90
2023-04-18T11:09:13.500Z,99.90
2023-04-18T11:11:41.881Z,99.90
2023-04-18T11:14:09.779Z,99.90
2023-04-18T11:16:37.329Z,99.90
2023-04-18T11:19:24.051Z,99.90
2023-04-18T11:21:51.925Z,99.90
2023-04-18T11:24:24.918Z,99.90
2023-04-18T11:26:56.047Z,99.90
2023-04-18T11:29:23.893Z,99.90
2023-04-18T11:31:55.217Z,99.90
2023-04-18T11:34:31.647Z,99.90
2023-04-18T11:36:59.200Z,99.90
2023-04-18T11:39:26.547Z,99.90
2023-04-18T11:41:56.367Z,99.90
2023-04-18T11:44:24.856Z,99.90
2023-04-18T11:46:52.895Z,99.90
2023-04-18T11:49:31.340Z,99.90
2023-04-18T11:51:59.532Z,99.90
2023-04-18T11:54:38.727Z,99.90
2023-04-18T11:57:08.773Z,99.90
2023-04-18T11:59:38.083Z,99.90
2023-04-18T12:02:16.137Z,99.90
2023-04-18T12:04:53.316Z,99.90
2023-04-18T12:07:44.657Z,99.90
2023-04-18T12:10:20.894Z,99.90
2023-04-18T12:12:49.840Z,99.90
2023-04-18T12:15:18.387Z,99.90
2023-04-18T12:17:48.490Z,99.90
2023-04-18T12:20:16.180Z,99.90
2023-04-18T12:22:51.349Z,99.90
2023-04-18T12:25:27.769Z,99.90
2023-04-18T12:28:15.531Z,99.90
2023-04-18T12:30:43.144Z,99.90
2023-04-18T12:33:10.401Z,99.90
2023-04-18T12:35:38.480Z,99.90
2023-04-18T12:38:05.957Z,99.90
2023-04-18T12:40:33.268Z,99.90
2023-04-18T12:43:03.576Z,99.90
2023-04-18T12:45:33.993Z,99.90
2023-04-18T12:48:01.209Z,99.90
2023-04-18T12:50:28.601Z,99.90
2023-04-18T12:52:59.480Z,99.90
2023-04-18T12:55:27.640Z,99.90
2023-04-18T12:57:58.079Z,99.90
2023-04-18T13:00:33.259Z,99.90
2023-04-18T13:03:00.935Z,99.90
2023-04-18T13:05:32.878Z,99.90
2023-04-18T13:10:32.500Z,99.90
2023-04-18T13:12:59.643Z,99.90
2023-04-18T13:15:27.575Z,99.90
2023-04-18T13:17:56.678Z,99.90
2023-04-18T13:20:26.860Z,99.90
2023-04-18T13:22:53.900Z,99.90
2023-04-18T13:25:21.735Z,99.90
2023-04-18T13:27:56.439Z,99.90
2023-04-18T13:30:29.776Z,99.90
2023-04-18T13:32:56.923Z,99.90
2023-04-18T13:35:24.301Z,99.90
2023-04-18T13:37:51.333Z,99.90
2023-04-18T13:40:18.660Z,99.90
2023-04-18T13:42:45.647Z,99.90
2023-04-18T13:45:12.945Z,99.90
2023-04-18T13:47:40.237Z,99.90
2023-04-18T13:50:08.212Z,99.90
2023-04-18T13:52:36.254Z,99.90
2023-04-18T13:55:05.236Z,99.90
2023-04-18T13:57:33.526Z,99.90
2023-04-18T14:00:01.222Z,99.90
2023-04-18T14:02:39.047Z,99.90
2023-04-18T14:05:09.085Z,99.90
2023-04-18T14:07:38.336Z,99.90
2023-04-18T14:10:06.437Z,99.90
2023-04-18T14:12:34.089Z,99.90
2023-04-18T14:15:01.267Z,99.90
2023-04-18T14:17:28.798Z,99.90
2023-04-18T14:19:55.933Z,99.90
2023-04-18T14:22:23.306Z,99.90
2023-04-18T14:24:52.405Z,99.90
2023-04-18T14:27:19.934Z,99.90
2023-04-18T14:29:50.684Z,99.90
2023-04-18T14:32:17.985Z,99.90
2023-04-18T14:34:45.171Z,99.90
2023-04-18T14:37:12.466Z,99.90
2023-04-18T14:39:39.495Z,99.90
2023-04-18T14:42:06.866Z,99.90
2023-04-18T14:44:33.898Z,99.90
2023-04-18T14:47:01.612Z,99.90
2023-04-18T14:49:28.686Z,99.90
2023-04-18T14:51:56.442Z,99.90
2023-04-18T14:54:23.414Z,99.90
2023-04-18T14:56:50.705Z,99.90
2023-04-18T14:59:18.005Z,99.90
2023-04-18T15:01:48.374Z,99.90
2023-04-18T15:04:15.923Z,99.90
2023-04-18T15:06:43.528Z,99.90
2023-04-18T15:09:10.588Z,99.90
2023-04-18T15:11:38.079Z,99.90
2023-04-18T15:14:05.040Z,99.90
2023-04-18T15:16:35.256Z,99.90
2023-04-18T15:19:02.421Z,99.90
2023-04-18T15:21:29.842Z,99.90
2023-04-18T15:23:57.321Z,99.90
2023-04-18T15:26:24.647Z,99.90
2023-04-18T15:28:54.203Z,99.90
2023-04-18T15:31:23.517Z,99.90
2023-04-18T15:33:50.584Z,99.90
2023-04-18T15:36:17.945Z,99.90
2023-04-18T15:38:45.086Z,99.90
2023-04-18T15:41:12.485Z,99.90
2023-04-18T15:43:42.566Z,99.90
2023-04-18T15:46:09.922Z,99.90
2023-04-18T15:48:37.145Z,99.90
2023-04-18T15:51:06.813Z,99.90
2023-04-18T15:53:33.836Z,99.90
2023-04-18T15:56:01.979Z,99.90
2023-04-18T15:58:30.114Z,99.90
2023-04-18T16:00:57.902Z,99.90
2023-04-18T16:03:26.464Z,99.90
2023-04-18T16:05:54.017Z,99.90
2023-04-18T16:08:21.324Z,99.90
2023-04-18T16:10:48.792Z,99.90
2023-04-18T16:13:16.155Z,99.90
2023-04-18T16:15:43.475Z,99.90
2023-04-18T16:18:10.965Z,1.00
2023-04-18T16:20:38.415Z,1.00
2023-04-18T16:23:05.553Z,1.00
2023-04-18T16:25:32.865Z,1.00
2023-04-18T16:28:02.827Z,1.00
2023-04-18T16:30:30.352Z,99.90
2023-04-18T16:33:00.637Z,99.90
2023-04-18T16:35:30.051Z,1.00
2023-04-18T16:37:57.098Z,1.00
2023-04-18T16:40:26.437Z,1.00
2023-04-18T16:42:53.454Z,1.00
2023-04-18T16:45:20.769Z,2.00
2023-04-18T16:47:49.195Z,27.20
2023-04-18T16:50:16.658Z,55.80
2023-04-18T16:52:43.692Z,83.90
2023-04-18T16:55:11.239Z,99.90
2023-04-18T16:57:38.542Z,99.90
2023-04-18T17:00:06.802Z,99.90
2023-04-18T17:02:34.007Z,99.90
2023-04-18T17:05:02.130Z,99.90
2023-04-18T17:07:31.695Z,99.90
2023-04-18T17:09:59.035Z,99.90
2023-04-18T17:12:26.500Z,99.90
2023-04-18T17:14:53.835Z,99.90
2023-04-18T17:17:20.907Z,99.90
2023-04-18T17:19:48.331Z,99.90
2023-04-18T17:22:15.472Z,99.90
2023-04-18T17:24:44.086Z,99.90
2023-04-18T17:27:11.178Z,99.90
2023-04-18T17:29:38.708Z,99.90
2023-04-18T17:32:06.447Z,99.90
2023-04-18T17:34:33.950Z,99.90
2023-04-18T17:37:01.099Z,1.00
2023-04-18T17:39:30.989Z,52.50
2023-04-18T17:41:58.286Z,97.30
2023-04-18T17:44:25.755Z,98.40
2023-04-18T17:46:52.776Z,99.90
2023-04-18T17:49:21.341Z,99.90
2023-04-18T17:51:48.462Z,99.90
2023-04-18T17:54:16.108Z,99.90
2023-04-18T17:56:44.218Z,99.90
2023-04-18T17:59:12.242Z,99.90
2023-04-18T18:01:40.213Z,20.90
2023-04-18T18:04:07.869Z,84.40
2023-04-18T18:06:35.449Z,99.90
2023-04-18T18:09:03.159Z,99.90
2023-04-18T18:11:30.311Z,9.20
2023-04-18T18:14:00.495Z,73.90
2023-04-18T18:16:28.001Z,99.90
2023-04-18T18:18:58.696Z,99.90
2023-04-18T18:21:26.323Z,22.70
2023-04-18T18:23:54.572Z,99.90
2023-04-18T18:26:22.268Z,99.90
2023-04-18T18:28:49.862Z,99.90
2023-04-18T18:31:17.823Z,99.90
2023-04-18T18:33:48.582Z,1.00
2023-04-18T18:36:15.880Z,99.90
2023-04-18T18:38:46.616Z,99.90
2023-04-18T18:41:13.818Z,15.80
2023-04-18T18:43:41.222Z,99.90
2023-04-18T18:46:08.397Z,99.90
2023-04-18T18:48:38.203Z,1.00
2023-04-18T18:51:08.849Z,99.90
2023-04-18T18:53:40.576Z,99.90
2023-04-18T18:56:08.823Z,99.90
2023-04-18T18:58:38.332Z,99.90
2023-04-18T19:01:06.209Z,99.90
2023-04-18T19:03:34.862Z,99.90
2023-04-18T19:06:04.938Z,99.90
2023-04-18T19:08:32.450Z,99.90
2023-04-18T19:10:59.596Z,99.90
2023-04-18T19:13:27.210Z,99.90
2023-04-18T19:15:54.396Z,99.90
2023-04-18T19:18:22.054Z,93.90
2023-04-18T19:20:52.026Z,8.20
2023-04-18T19:23:19.527Z,99.90
2023-04-18T19:25:47.116Z,99.90
2023-04-18T19:28:14.576Z,91.60
2023-04-18T19:30:42.683Z,1.00
2023-04-18T19:33:11.185Z,1.00
2023-04-18T19:35:38.397Z,99.90
2023-04-18T19:38:08.461Z,99.90
2023-04-18T19:40:35.545Z,99.90
2023-04-18T19:43:02.910Z,99.90
2023-04-18T19:45:38.007Z,99.90
2023-04-18T19:48:05.918Z,99.90
2023-04-18T19:50:33.686Z,99.90
2023-04-18T19:53:01.390Z,99.90
2023-04-18T19:55:28.670Z,1.00
2023-04-18T19:57:56.794Z,1.00
2023-04-18T20:00:24.061Z,1.00
2023-04-18T20:02:51.994Z,1.00
2023-04-18T20:05:19.746Z,1.00
2023-04-18T20:07:47.291Z,99.90
2023-04-18T20:10:14.621Z,99.90
2023-04-18T20:12:42.021Z,99.90
2023-04-18T20:15:09.803Z,99.90
2023-04-18T20:17:37.732Z,99.90
2023-04-18T20:20:10.257Z,99.90
2023-04-18T20:22:41.116Z,99.90
2023-04-18T20:25:08.987Z,99.90
2023-04-18T20:27:39.228Z,99.90
2023-04-18T20:30:06.934Z,99.90
2023-04-18T20:32:38.438Z,1.00
2023-04-18T20:35:05.983Z,1.00
2023-04-18T20:37:36.762Z,1.00
2023-04-18T20:40:08.010Z,1.00
2023-04-18T20:42:36.680Z,1.00
2023-04-18T20:45:05.680Z,1.00
2023-04-18T20:47:36.039Z,1.00
2023-04-18T20:50:03.418Z,1.00
2023-04-18T20:52:31.279Z,1.00
2023-04-18T20:54:58.583Z,1.00
2023-04-18T20:57:26.038Z,1.00
2023-04-18T20:59:53.242Z,1.00
2023-04-18T21:02:20.819Z,99.90
2023-04-18T21:04:48.706Z,99.90
2023-04-18T21:07:16.566Z,99.90
2023-04-18T21:09:43.673Z,99.90
2023-04-18T21:12:11.071Z,99.90
2023-04-18T21:14:39.725Z,99.90
2023-04-18T21:17:07.506Z,99.90
2023-04-18T21:19:34.753Z,99.90
2023-04-18T21:22:02.431Z,99.90
2023-04-18T21:24:29.507Z,99.90
2023-04-18T21:26:57.774Z,99.90
2023-04-18T21:29:24.867Z,99.90
2023-04-18T21:31:52.493Z,7.90
2023-04-18T21:34:20.136Z,99.90
2023-04-18T21:36:47.570Z,66.20
2023-04-18T21:39:14.662Z,99.90
2023-04-18T21:41:42.656Z,99.90
2023-04-18T21:44:10.760Z,99.90
2023-04-18T21:46:38.347Z,99.90
2023-04-18T21:49:05.470Z,1.00
2023-04-18T21:51:32.914Z,99.90
2023-04-18T21:54:00.136Z,99.90
2023-04-18T21:56:27.543Z,1.00
2023-04-18T21:58:57.384Z,1.00
2023-04-18T22:01:25.032Z,99.90
2023-04-18T22:03:52.376Z,61.40
2023-04-18T22:06:20.908Z,99.90
2023-04-18T22:08:48.189Z,99.90
2023-04-18T22:11:15.784Z,99.90
2023-04-18T22:13:45.047Z,99.90
2023-04-18T22:16:12.562Z,1.00
2023-04-18T22:18:42.296Z,99.90
2023-04-18T22:21:10.113Z,99.90
2023-04-18T22:23:37.161Z,99.90
2023-04-18T22:26:04.568Z,99.90
2023-04-18T22:28:32.408Z,1.00
2023-04-18T22:30:59.894Z,1.00
2023-04-18T22:33:27.032Z,99.90
2023-04-18T22:35:55.562Z,36.00
2023-04-18T22:38:22.677Z,99.90
2023-04-18T22:40:50.068Z,99.90
2023-04-18T22:43:22.595Z,1.00
2023-04-18T22:45:51.008Z,99.90
2023-04-18T22:48:18.716Z,99.90
2023-04-18T22:50:46.434Z,99.90
2023-04-18T22:53:15.114Z,99.90
2023-04-18T22:55:44.175Z,99.90
2023-04-18T22:58:11.635Z,99.90
2023-04-18T23:00:39.101Z,99.90
2023-04-18T23:03:06.308Z,99.90
2023-04-18T23:05:34.619Z,99.90
2023-04-18T23:08:01.981Z,1.00
2023-04-18T23:10:29.428Z,65.30
2023-04-18T23:12:56.591Z,99.90
2023-04-18T23:15:25.283Z,99.90
2023-04-18T23:17:53.729Z,99.90
2023-04-18T23:20:21.866Z,99.90
2023-04-18T23:22:51.568Z,99.90
2023-04-18T23:25:22.536Z,99.90
2023-04-18T23:27:49.641Z,99.90
2023-04-18T23:30:17.206Z,99.90
2023-04-18T23:32:44.290Z,99.90
2023-04-18T23:35:11.914Z,99.90
2023-04-18T23:37:39.208Z,99.90
2023-04-18T23:40:08.063Z,99.90
2023-04-18T23:42:35.803Z,99.90
2023-04-18T23:45:04.240Z,99.90
2023-04-18T23:47:31.617Z,99.90
2023-04-18T23:49:59.066Z,99.90
2023-04-18T23:52:26.136Z,99.90
2023-04-18T23:54:53.509Z,99.90
2023-04-18T23:57:20.653Z,99.90
2023-04-18T23:59:48.912Z,99.90
